Time;durP1;ratioP1;P1;durP2;ratioP2;P2;SDS_P1;SDS_P2;PMS_P1;PMS_P2;Temp;Humidity;BMP_temperature;BMP_pressure;BME280_temperature;BME280_humidity;BME280_pressure;Samples;Min_cycle;Max_cycle;Signal;HPM_P1;HPM_P2
2021/08/30 00:02:28;;;;;;;18.80;16.90;;;;;;;;;;5033033;28;20449;-63
2021/08/30 00:04:55;;;;;;;19.70;17.07;;;;;;;;;;5033418;28;20445;-63
2021/08/30 00:07:22;;;;;;;21.87;17.07;;;;;;;;;;5032850;28;20507;-64
2021/08/30 00:09:49;;;;;;;19.73;17.23;;;;;;;;;;5033545;28;20460;-62
2021/08/30 00:12:17;;;;;;;22.50;17.53;;;;;;;;;;5033798;28;20917;-63
2021/08/30 00:14:44;;;;;;;19.30;16.93;;;;;;;;;;5033162;28;20485;-63
2021/08/30 00:17:11;;;;;;;17.80;16.10;;;;;;;;;;5032901;28;20440;-63
2021/08/30 00:19:40;;;;;;;19.50;16.87;;;;;;;;;;5032796;28;20949;-63
2021/08/30 00:22:07;;;;;;;20.10;17.33;;;;;;;;;;5032878;28;21006;-63
2021/08/30 00:24:34;;;;;;;20.30;18.10;;;;;;;;;;5035858;28;20503;-62
2021/08/30 00:27:01;;;;;;;21.60;17.40;;;;;;;;;;5037356;28;20441;-63
2021/08/30 00:29:29;;;;;;;20.27;17.30;;;;;;;;;;5037005;28;20518;-63
2021/08/30 00:31:56;;;;;;;21.57;19.27;;;;;;;;;;5037190;28;20495;-63
2021/08/30 00:34:24;;;;;;;21.20;18.53;;;;;;;;;;5036677;28;20477;-63
2021/08/30 00:36:53;;;;;;;21.23;18.27;;;;;;;;;;5037022;28;20491;-63
2021/08/30 00:39:21;;;;;;;20.80;18.70;;;;;;;;;;5036942;28;20469;-62
2021/08/30 00:41:49;;;;;;;20.90;17.63;;;;;;;;;;5036670;28;20444;-63
2021/08/30 00:44:16;;;;;;;21.57;18.63;;;;;;;;;;5036900;28;20437;-63
2021/08/30 00:46:43;;;;;;;20.73;17.63;;;;;;;;;;5036842;28;20751;-62
2021/08/30 00:49:10;;;;;;;20.27;18.07;;;;;;;;;;5037179;28;20468;-63
2021/08/30 00:51:38;;;;;;;21.63;18.60;;;;;;;;;;5037260;28;20481;-63
2021/08/30 00:54:08;;;;;;;20.63;18.53;;;;;;;;;;5037516;28;20480;-63
2021/08/30 00:56:36;;;;;;;21.93;18.40;;;;;;;;;;5037094;28;20429;-63
2021/08/30 00:59:03;;;;;;;23.50;18.70;;;;;;;;;;5037469;28;20469;-64
2021/08/30 01:01:30;;;;;;;20.93;18.70;;;;;;;;;;5036952;28;20790;-62
2021/08/30 01:03:57;;;;;;;23.40;18.27;;;;;;;;;;5037066;28;20448;-64
2021/08/30 01:06:27;;;;;;;21.80;19.50;;;;;;;;;;5037116;28;21003;-64
2021/08/30 01:08:59;;;;;;;21.40;18.33;;;;;;;;;;5036857;28;20542;-64
2021/08/30 01:11:29;;;;;;;22.17;19.83;;;;;;;;;;5036649;28;20433;-63
2021/08/30 01:13:57;;;;;;;24.30;19.40;;;;;;;;;;5036103;28;20477;-63
2021/08/30 01:16:25;;;;;;;21.33;18.37;;;;;;;;;;5036128;28;20998;-63
2021/08/30 01:18:54;;;;;;;22.67;18.90;;;;;;;;;;5036220;28;20469;-63
2021/08/30 01:21:23;;;;;;;23.10;19.97;;;;;;;;;;5036334;28;20457;-63
2021/08/30 01:23:52;;;;;;;20.53;18.00;;;;;;;;;;5035927;28;20986;-63
2021/08/30 01:26:20;;;;;;;21.90;19.23;;;;;;;;;;5035866;28;20932;-63
2021/08/30 01:29:00;;;;;;;27.07;20.30;;;;;;;;;;5037092;28;20472;-63
2021/08/30 01:31:29;;;;;;;22.17;19.83;;;;;;;;;;5037862;28;20453;-63
2021/08/30 01:33:57;;;;;;;22.63;20.23;;;;;;;;;;5036339;28;20994;-63
2021/08/30 01:36:24;;;;;;;21.60;19.30;;;;;;;;;;5034990;28;20449;-62
2021/08/30 01:38:58;;;;;;;22.87;19.83;;;;;;;;;;5035545;28;21049;-62
2021/08/30 01:41:26;;;;;;;23.07;20.60;;;;;;;;;;5035578;28;20425;-62
2021/08/30 01:43:54;;;;;;;22.43;20.03;;;;;;;;;;5035557;28;20503;-62
2021/08/30 01:46:22;;;;;;;21.73;19.43;;;;;;;;;;5035487;28;20445;-62
2021/08/30 01:48:50;;;;;;;23.33;20.87;;;;;;;;;;5035443;28;20820;-62
2021/08/30 01:51:22;;;;;;;20.97;18.87;;;;;;;;;;5036138;28;20453;-62
2021/08/30 01:53:50;;;;;;;23.13;19.67;;;;;;;;;;5035990;28;20501;-61
2021/08/30 01:56:18;;;;;;;21.00;18.87;;;;;;;;;;5036055;28;20491;-62
2021/08/30 02:01:32;;;;;;;22.60;20.20;;;;;;;;;;5035649;28;20393;-63
2021/08/30 02:03:59;;;;;;;21.70;19.47;;;;;;;;;;5035521;28;20441;-62
2021/08/30 02:06:27;;;;;;;21.00;18.80;;;;;;;;;;5035112;28;20510;-63
2021/08/30 02:08:56;;;;;;;22.73;20.13;;;;;;;;;;5035068;28;20539;-63
2021/08/30 02:11:29;;;;;;;21.27;19.07;;;;;;;;;;5035459;28;20449;-63
2021/08/30 02:13:57;;;;;;;23.47;19.80;;;;;;;;;;5035360;28;20480;-63
2021/08/30 02:16:24;;;;;;;22.73;20.03;;;;;;;;;;5035278;28;20499;-63
2021/08/30 02:18:53;;;;;;;22.83;20.30;;;;;;;;;;5035167;28;20530;-63
2021/08/30 02:21:22;;;;;;;21.90;19.60;;;;;;;;;;5035125;28;20453;-63
2021/08/30 02:23:55;;;;;;;22.13;19.80;;;;;;;;;;5035149;28;20449;-62
2021/08/30 02:26:26;;;;;;;22.97;20.53;;;;;;;;;;5035569;28;20835;-62
2021/08/30 02:28:53;;;;;;;21.63;19.30;;;;;;;;;;5035320;28;20563;-62
2021/08/30 02:31:20;;;;;;;26.33;20.10;;;;;;;;;;5035597;28;20503;-63
2021/08/30 02:33:48;;;;;;;24.63;19.60;;;;;;;;;;5035138;28;20484;-63
2021/08/30 02:36:16;;;;;;;25.83;19.23;;;;;;;;;;5035791;28;20445;-63
2021/08/30 02:38:44;;;;;;;23.60;20.40;;;;;;;;;;5034659;28;20468;-63
2021/08/30 02:41:14;;;;;;;23.17;20.70;;;;;;;;;;5035745;28;20441;-63
2021/08/30 02:43:41;;;;;;;21.23;19.00;;;;;;;;;;5034692;28;20445;-63
2021/08/30 02:46:09;;;;;;;22.97;20.47;;;;;;;;;;5034723;28;20523;-62
2021/08/30 02:48:37;;;;;;;27.03;20.93;;;;;;;;;;5033754;28;20461;-62
2021/08/30 02:51:06;;;;;;;24.37;20.17;;;;;;;;;;5034707;28;20457;-63
2021/08/30 02:53:33;;;;;;;23.27;19.03;;;;;;;;;;5034847;28;20480;-62
2021/08/30 02:56:01;;;;;;;21.33;19.10;;;;;;;;;;5035025;28;20444;-62
2021/08/30 02:58:30;;;;;;;23.70;20.37;;;;;;;;;;5034391;28;20469;-62
2021/08/30 03:00:58;;;;;;;25.83;21.07;;;;;;;;;;5034405;28;20530;-63
2021/08/30 03:03:25;;;;;;;23.30;20.90;;;;;;;;;;5033998;28;20999;-63
2021/08/30 03:05:53;;;;;;;24.93;20.37;;;;;;;;;;5034285;28;20440;-63
2021/08/30 03:08:20;;;;;;;26.13;21.90;;;;;;;;;;5033807;28;20940;-63
2021/08/30 03:10:48;;;;;;;21.93;19.70;;;;;;;;;;5034138;28;20500;-62
2021/08/30 03:13:15;;;;;;;23.27;20.80;;;;;;;;;;5034582;28;20479;-63
2021/08/30 03:15:46;;;;;;;22.73;19.50;;;;;;;;;;5033839;28;20603;-63
2021/08/30 03:18:14;;;;;;;25.23;21.40;;;;;;;;;;5034043;28;20859;-62
2021/08/30 03:20:42;;;;;;;24.50;20.83;;;;;;;;;;5033672;28;20453;-62
2021/08/30 03:23:10;;;;;;;25.03;20.40;;;;;;;;;;5033696;28;20487;-63
2021/08/30 03:25:38;;;;;;;22.77;20.23;;;;;;;;;;5033773;28;20491;-63
2021/08/30 03:28:06;;;;;;;25.00;21.90;;;;;;;;;;5033514;28;20519;-62
2021/08/30 03:30:33;;;;;;;24.13;21.60;;;;;;;;;;5033540;28;20444;-63
2021/08/30 03:33:02;;;;;;;24.60;22.10;;;;;;;;;;5033507;28;20457;-63
2021/08/30 03:35:30;;;;;;;26.53;22.10;;;;;;;;;;5033476;28;20992;-62
2021/08/30 03:37:58;;;;;;;23.53;21.00;;;;;;;;;;5033768;28;20477;-62
2021/08/30 03:40:27;;;;;;;26.90;21.90;;;;;;;;;;5033785;28;20525;-63
2021/08/30 03:42:55;;;;;;;24.43;21.20;;;;;;;;;;5033765;28;20536;-62
2021/08/30 03:45:22;;;;;;;23.33;20.90;;;;;;;;;;5040971;28;20929;-63
2021/08/30 03:47:50;;;;;;;24.87;21.33;;;;;;;;;;5040144;28;20994;-63
2021/08/30 03:50:19;;;;;;;27.13;23.57;;;;;;;;;;5033803;28;20453;-63
2021/08/30 03:52:46;;;;;;;26.73;23.93;;;;;;;;;;5033177;28;20998;-63
2021/08/30 03:55:14;;;;;;;26.00;23.20;;;;;;;;;;5033214;28;20473;-63
2021/08/30 03:57:42;;;;;;;25.87;23.10;;;;;;;;;;5033397;28;20465;-62
2021/08/30 04:00:11;;;;;;;27.93;23.33;;;;;;;;;;5032863;28;20437;-61
2021/08/30 04:02:40;;;;;;;28.90;23.13;;;;;;;;;;5032965;28;20448;-63
2021/08/30 04:08:33;;;;;;;25.47;22.30;;;;;;;;;;5111359;27;20565;-64
2021/08/30 04:11:01;;;;;;;25.03;22.43;;;;;;;;;;5111187;28;20499;-63
2021/08/30 04:13:29;;;;;;;23.13;20.73;;;;;;;;;;5111238;28;20503;-63
2021/08/30 04:15:56;;;;;;;26.93;22.90;;;;;;;;;;5111175;28;20438;-63
2021/08/30 04:18:23;;;;;;;26.13;22.53;;;;;;;;;;5111219;28;20792;-63
2021/08/30 04:20:50;;;;;;;30.53;22.97;;;;;;;;;;5110826;28;20471;-62
2021/08/30 04:23:18;;;;;;;25.30;22.40;;;;;;;;;;5110982;28;20445;-63
2021/08/30 04:25:46;;;;;;;24.50;21.70;;;;;;;;;;5111192;28;20491;-63
2021/08/30 04:28:14;;;;;;;25.57;22.87;;;;;;;;;;5110839;28;20968;-64
2021/08/30 04:30:41;;;;;;;27.97;22.50;;;;;;;;;;5111046;28;21002;-63
2021/08/30 04:33:10;;;;;;;26.87;24.13;;;;;;;;;;5110449;28;20441;-63
2021/08/30 04:35:38;;;;;;;25.17;22.47;;;;;;;;;;5110408;28;20450;-63
2021/08/30 04:38:05;;;;;;;27.20;23.57;;;;;;;;;;5110181;28;20454;-63
2021/08/30 04:40:32;;;;;;;26.57;23.73;;;;;;;;;;5110664;28;20566;-63
2021/08/30 04:43:01;;;;;;;25.47;22.77;;;;;;;;;;5110532;28;20495;-63
2021/08/30 04:45:28;;;;;;;28.63;23.83;;;;;;;;;;5110620;28;20434;-62
2021/08/30 04:47:56;;;;;;;27.43;24.27;;;;;;;;;;5111083;28;20561;-63
2021/08/30 04:50:23;;;;;;;30.17;23.80;;;;;;;;;;5110554;28;20519;-63
2021/08/30 04:52:50;;;;;;;28.10;24.17;;;;;;;;;;5110429;28;20856;-64
2021/08/30 04:55:17;;;;;;;26.90;24.00;;;;;;;;;;5110143;28;20507;-64
2021/08/30 04:57:45;;;;;;;30.63;24.60;;;;;;;;;;5110299;28;20457;-64
2021/08/30 05:00:14;;;;;;;28.97;25.07;;;;;;;;;;5110368;28;20538;-64
2021/08/30 05:02:41;;;;;;;27.57;23.93;;;;;;;;;;5110200;28;20441;-63
2021/08/30 05:05:09;;;;;;;29.40;24.70;;;;;;;;;;5110201;28;20490;-63
2021/08/30 05:07:36;;;;;;;27.10;23.90;;;;;;;;;;5109506;28;20477;-63
2021/08/30 05:10:03;;;;;;;32.23;25.80;;;;;;;;;;5110066;28;20438;-62
2021/08/30 05:12:30;;;;;;;32.40;27.00;;;;;;;;;;5109941;28;20496;-61
2021/08/30 05:14:58;;;;;;;28.37;25.10;;;;;;;;;;5110056;28;20442;-62
2021/08/30 05:17:26;;;;;;;30.93;26.07;;;;;;;;;;5109515;28;20991;-62
2021/08/30 05:19:54;;;;;;;29.23;24.93;;;;;;;;;;5095813;28;20834;-62
2021/08/30 05:22:21;;;;;;;29.80;25.53;;;;;;;;;;5096228;28;20460;-63
2021/08/30 05:24:48;;;;;;;30.03;25.23;;;;;;;;;;5096765;28;20503;-63
2021/08/30 05:27:15;;;;;;;27.93;24.67;;;;;;;;;;5095769;28;20485;-63
2021/08/30 05:29:43;;;;;;;32.13;24.50;;;;;;;;;;5095639;28;20952;-63
2021/08/30 05:32:10;;;;;;;30.90;24.47;;;;;;;;;;5096387;28;20499;-63
2021/08/30 05:34:38;;;;;;;28.87;24.73;;;;;;;;;;5096046;28;20451;-62
2021/08/30 05:37:06;;;;;;;28.60;23.67;;;;;;;;;;5095756;28;20438;-63
2021/08/30 05:39:33;;;;;;;27.03;24.27;;;;;;;;;;5095353;28;20879;-63
2021/08/30 05:42:00;;;;;;;30.57;23.77;;;;;;;;;;5095838;28;20438;-63
2021/08/30 05:44:27;;;;;;;26.33;23.60;;;;;;;;;;5095727;28;20442;-63
2021/08/30 05:46:55;;;;;;;25.60;22.77;;;;;;;;;;5095162;28;20527;-61
2021/08/30 05:49:22;;;;;;;25.10;22.40;;;;;;;;;;5095357;28;20824;-64
2021/08/30 05:51:50;;;;;;;27.03;23.00;;;;;;;;;;5095096;28;20446;-62
2021/08/30 05:54:18;;;;;;;24.10;21.70;;;;;;;;;;5095370;28;20995;-64
2021/08/30 05:56:45;;;;;;;23.93;21.43;;;;;;;;;;5095276;28;20454;-64
2021/08/30 05:59:12;;;;;;;26.67;21.40;;;;;;;;;;5095001;28;21030;-63
2021/08/30 06:01:41;;;;;;;24.43;21.50;;;;;;;;;;5095500;28;20495;-63
2021/08/30 06:04:08;;;;;;;23.37;19.93;;;;;;;;;;5095173;28;20449;-62
2021/08/30 06:06:35;;;;;;;24.37;21.63;;;;;;;;;;5094577;28;20902;-61
2021/08/30 06:09:04;;;;;;;23.50;21.10;;;;;;;;;;5094771;28;20519;-63
2021/08/30 06:11:31;;;;;;;23.03;20.67;;;;;;;;;;5095236;28;20446;-63
2021/08/30 06:13:59;;;;;;;22.00;19.80;;;;;;;;;;5094884;28;20496;-62
2021/08/30 06:16:26;;;;;;;21.03;18.80;;;;;;;;;;5094926;28;20438;-61
2021/08/30 06:18:54;;;;;;;23.47;19.80;;;;;;;;;;5094991;28;20531;-62
2021/08/30 06:21:21;;;;;;;20.70;18.40;;;;;;;;;;5094763;28;20957;-63
2021/08/30 06:23:48;;;;;;;21.45;19.15;;;;;;;;;;5095230;28;20425;-63
2021/08/30 06:26:17;;;;;;;21.50;19.30;;;;;;;;;;5094964;28;20201;-63
2021/08/30 06:28:44;;;;;;;21.03;18.73;;;;;;;;;;5094650;28;21001;-64
2021/08/30 06:31:11;;;;;;;20.90;18.70;;;;;;;;;;5095412;28;20446;-62
2021/08/30 06:33:38;;;;;;;22.73;19.80;;;;;;;;;;5096218;28;20869;-64
2021/08/30 06:36:06;;;;;;;21.40;18.53;;;;;;;;;;5095748;28;20446;-64
2021/08/30 06:38:33;;;;;;;22.60;18.33;;;;;;;;;;5095722;28;20571;-64
2021/08/30 06:41:00;;;;;;;19.60;16.87;;;;;;;;;;5095120;28;20783;-65
2021/08/30 06:43:29;;;;;;;19.80;17.70;;;;;;;;;;5094339;28;20442;-64
2021/08/30 06:45:56;;;;;;;19.40;17.20;;;;;;;;;;5094526;28;20921;-65
2021/08/30 06:48:23;;;;;;;18.53;16.53;;;;;;;;;;5093925;28;20474;-64
2021/08/30 06:50:51;;;;;;;19.23;17.30;;;;;;;;;;5094639;28;20519;-64
2021/08/30 06:53:18;;;;;;;18.77;16.77;;;;;;;;;;5094216;28;20499;-65
2021/08/30 06:55:45;;;;;;;20.60;18.40;;;;;;;;;;5094173;28;20496;-63
2021/08/30 06:58:12;;;;;;;18.50;16.60;;;;;;;;;;5093884;28;20463;-64
2021/08/30 07:00:41;;;;;;;19.87;17.80;;;;;;;;;;5093843;28;20994;-64
2021/08/30 07:03:08;;;;;;;19.90;17.40;;;;;;;;;;5094134;28;20442;-64
2021/08/30 07:05:36;;;;;;;20.87;17.93;;;;;;;;;;5094445;28;20446;-64
2021/08/30 07:08:03;;;;;;;19.63;17.60;;;;;;;;;;5093981;28;20545;-64
2021/08/30 07:10:30;;;;;;;19.77;17.57;;;;;;;;;;5093816;28;20906;-63
2021/08/30 07:12:57;;;;;;;17.27;15.50;;;;;;;;;;5094312;28;20511;-64
2021/08/30 07:15:25;;;;;;;19.33;17.30;;;;;;;;;;5093790;28;20446;-64
2021/08/30 07:17:53;;;;;;;22.20;19.90;;;;;;;;;;5094176;28;20479;-64
2021/08/30 07:20:21;;;;;;;22.33;19.97;;;;;;;;;;5093800;28;20484;-64
2021/08/30 07:22:48;;;;;;;23.67;21.27;;;;;;;;;;5093713;28;20447;-63
2021/08/30 07:25:15;;;;;;;23.80;21.30;;;;;;;;;;5093357;28;20495;-65
2021/08/30 07:27:42;;;;;;;25.43;21.87;;;;;;;;;;5094787;28;20474;-65
2021/08/30 07:30:10;;;;;;;24.50;21.93;;;;;;;;;;5093384;28;20826;-65
2021/08/30 07:32:37;;;;;;;24.83;22.23;;;;;;;;;;5093517;28;20442;-65
2021/08/30 07:35:06;;;;;;;23.97;21.37;;;;;;;;;;5094012;28;20443;-63
2021/08/30 07:37:34;;;;;;;23.73;21.23;;;;;;;;;;5095120;28;20499;-64
2021/08/30 07:40:01;;;;;;;25.37;22.70;;;;;;;;;;5095010;28;20482;-65
2021/08/30 07:42:28;;;;;;;26.43;22.10;;;;;;;;;;5095701;28;20442;-64
2021/08/30 07:44:56;;;;;;;22.97;20.57;;;;;;;;;;5094961;28;20990;-64
2021/08/30 07:47:23;;;;;;;22.83;20.53;;;;;;;;;;5094974;28;20495;-63
2021/08/30 07:49:50;;;;;;;21.40;19.20;;;;;;;;;;5096051;28;20843;-64
2021/08/30 07:52:20;;;;;;;22.23;19.60;;;;;;;;;;5094692;28;20496;-63
2021/08/30 07:54:47;;;;;;;22.43;20.13;;;;;;;;;;5095198;28;20446;-65
2021/08/30 07:57:15;;;;;;;21.30;19.20;;;;;;;;;;5096057;28;20442;-64
2021/08/30 07:59:42;;;;;;;23.00;19.47;;;;;;;;;;5094756;28;20519;-64
2021/08/30 08:02:09;;;;;;;22.53;17.60;;;;;;;;;;5094691;28;20848;-64
2021/08/30 08:04:36;;;;;;;22.07;17.53;;;;;;;;;;5093189;28;20503;-63
2021/08/30 08:07:04;;;;;;;18.20;16.13;;;;;;;;;;5094098;28;20450;-64
2021/08/30 08:09:32;;;;;;;17.53;15.70;;;;;;;;;;5102447;28;20477;-64
2021/08/30 08:12:00;;;;;;;17.60;15.03;;;;;;;;;;5103259;28;20491;-63
2021/08/30 08:14:27;;;;;;;15.40;13.90;;;;;;;;;;5105271;28;20442;-64
2021/08/30 08:16:54;;;;;;;16.40;14.70;;;;;;;;;;5102216;28;20454;-64
2021/08/30 08:19:22;;;;;;;15.37;13.83;;;;;;;;;;5095748;28;20458;-62
2021/08/30 08:21:49;;;;;;;13.60;12.30;;;;;;;;;;5093500;28;20491;-63
2021/08/30 08:24:16;;;;;;;15.20;13.00;;;;;;;;;;5093460;28;20452;-63
2021/08/30 08:26:45;;;;;;;17.13;13.77;;;;;;;;;;5093168;28;20913;-63
2021/08/30 08:29:12;;;;;;;13.50;12.20;;;;;;;;;;5093427;28;20889;-63
2021/08/30 08:31:39;;;;;;;13.93;12.50;;;;;;;;;;5093149;28;20488;-64
2021/08/30 08:34:07;;;;;;;13.23;12.03;;;;;;;;;;5092832;28;20446;-62
2021/08/30 08:36:34;;;;;;;15.67;14.00;;;;;;;;;;5093205;28;20506;-63
2021/08/30 08:39:01;;;;;;;13.13;11.83;;;;;;;;;;5093030;28;20462;-64
2021/08/30 08:41:29;;;;;;;13.80;12.43;;;;;;;;;;5092911;28;20503;-63
2021/08/30 08:43:58;;;;;;;14.67;13.27;;;;;;;;;;5093127;28;20488;-63
2021/08/30 08:46:27;;;;;;;14.60;12.80;;;;;;;;;;5092875;28;20446;-64
2021/08/30 08:48:54;;;;;;;12.70;11.50;;;;;;;;;;5092902;28;20485;-63
2021/08/30 08:51:21;;;;;;;13.37;11.97;;;;;;;;;;5093430;28;20445;-64
2021/08/30 08:53:48;;;;;;;13.17;11.97;;;;;;;;;;5094410;28;20523;-64
2021/08/30 08:56:16;;;;;;;12.40;11.20;;;;;;;;;;5096731;28;20495;-64
2021/08/30 08:58:43;;;;;;;12.03;10.83;;;;;;;;;;5097366;28;20999;-64
2021/08/30 09:01:12;;;;;;;15.70;9.63;;;;;;;;;;5096146;28;20442;-63
2021/08/30 09:03:50;;;;;;;10.40;9.40;;;;;;;;;;5096729;28;20474;-64
2021/08/30 09:06:25;;;;;;;10.93;9.50;;;;;;;;;;5096623;28;20429;-64
2021/08/30 09:08:54;;;;;;;9.83;8.80;;;;;;;;;;5096693;28;20481;-64
2021/08/30 09:11:23;;;;;;;9.50;8.70;;;;;;;;;;5096459;28;20438;-64
2021/08/30 09:13:51;;;;;;;9.53;8.60;;;;;;;;;;5096328;28;20450;-64
2021/08/30 09:16:20;;;;;;;8.53;7.73;;;;;;;;;;5096459;28;20446;-64
2021/08/30 09:18:48;;;;;;;11.83;8.73;;;;;;;;;;5095918;28;20476;-64
2021/08/30 09:21:16;;;;;;;9.47;8.57;;;;;;;;;;5096234;28;20453;-65
2021/08/30 09:23:44;;;;;;;10.37;8.20;;;;;;;;;;5096142;28;20446;-62
2021/08/30 09:26:16;;;;;;;9.33;8.40;;;;;;;;;;5095918;28;20438;-63
2021/08/30 09:28:49;;;;;;;10.37;9.30;;;;;;;;;;5095816;28;20569;-65
2021/08/30 09:31:17;;;;;;;9.30;8.40;;;;;;;;;;5096022;28;20472;-63
2021/08/30 09:33:48;;;;;;;10.10;8.20;;;;;;;;;;5095799;28;20446;-64
2021/08/30 09:36:16;;;;;;;9.87;8.90;;;;;;;;;;5095649;28;20464;-64
2021/08/30 09:38:44;;;;;;;9.03;8.13;;;;;;;;;;5095504;28;20462;-64
2021/08/30 09:41:12;;;;;;;8.03;7.23;;;;;;;;;;5095966;28;20446;-65
2021/08/30 09:43:39;;;;;;;9.43;8.37;;;;;;;;;;5095714;28;20442;-63
2021/08/30 09:46:08;;;;;;;8.10;7.30;;;;;;;;;;5095545;28;20450;-64
2021/08/30 09:48:36;;;;;;;8.60;7.77;;;;;;;;;;5095214;28;20485;-64
2021/08/30 09:51:05;;;;;;;8.93;8.07;;;;;;;;;;5095569;28;20541;-64
2021/08/30 09:53:34;;;;;;;9.00;8.10;;;;;;;;;;5095383;28;20500;-64
2021/08/30 09:56:02;;;;;;;9.07;8.27;;;;;;;;;;5095565;28;20449;-64
2021/08/30 09:58:30;;;;;;;9.97;7.00;;;;;;;;;;5095277;28;20462;-63
2021/08/30 10:00:59;;;;;;;8.37;7.57;;;;;;;;;;5095509;28;20446;-64
2021/08/30 10:03:30;;;;;;;8.13;7.33;;;;;;;;;;5095124;28;20446;-62
2021/08/30 10:05:58;;;;;;;9.50;8.50;;;;;;;;;;5095126;28;20947;-63
2021/08/30 10:08:27;;;;;;;8.70;7.07;;;;;;;;;;5094329;28;20482;-64
2021/08/30 10:10:55;;;;;;;8.90;8.03;;;;;;;;;;5095125;28;20995;-65
2021/08/30 10:13:22;;;;;;;8.97;8.13;;;;;;;;;;5095409;28;20507;-64
2021/08/30 10:15:50;;;;;;;8.27;7.47;;;;;;;;;;5095499;28;20486;-64
2021/08/30 10:18:20;;;;;;;8.90;8.00;;;;;;;;;;5095227;28;20462;-61
2021/08/30 10:20:50;;;;;;;8.87;7.97;;;;;;;;;;5095449;28;20452;-66
2021/08/30 10:23:18;;;;;;;9.40;8.40;;;;;;;;;;5094625;28;20930;-63
2021/08/30 10:25:58;;;;;;;9.37;7.70;;;;;;;;;;5095059;28;20450;-64
2021/08/30 10:28:35;;;;;;;8.53;7.73;;;;;;;;;;5095257;28;20490;-66
2021/08/30 10:31:02;;;;;;;8.87;7.97;;;;;;;;;;5094894;28;20895;-63
2021/08/30 10:33:36;;;;;;;9.13;8.23;;;;;;;;;;5094964;28;20474;-63
2021/08/30 10:36:12;;;;;;;9.37;8.50;;;;;;;;;;5094482;28;20430;-63
2021/08/30 10:38:39;;;;;;;9.40;8.57;;;;;;;;;;5094270;28;20458;-63
2021/08/30 10:41:16;;;;;;;8.53;7.73;;;;;;;;;;5094793;28;20442;-62
2021/08/30 10:43:44;;;;;;;8.33;7.53;;;;;;;;;;5094754;28;20426;-63
2021/08/30 10:46:14;;;;;;;8.23;7.40;;;;;;;;;;5094643;28;20519;-64
2021/08/30 10:48:42;;;;;;;11.13;7.60;;;;;;;;;;5093665;28;20519;-62
2021/08/30 10:51:13;;;;;;;7.97;7.27;;;;;;;;;;5094258;28;20446;-64
2021/08/30 10:53:41;;;;;;;8.40;7.60;;;;;;;;;;5094161;28;20453;-63
2021/08/30 10:56:09;;;;;;;10.73;7.20;;;;;;;;;;5094396;28;20446;-64
2021/08/30 10:58:38;;;;;;;8.13;7.33;;;;;;;;;;5094167;28;20503;-63
2021/08/30 11:01:12;;;;;;;8.10;7.27;;;;;;;;;;5095165;28;20457;-64
2021/08/30 11:03:40;;;;;;;7.93;6.83;;;;;;;;;;5095049;28;20435;-63
2021/08/30 11:06:08;;;;;;;8.00;7.20;;;;;;;;;;5095402;28;20446;-62
2021/08/30 11:08:36;;;;;;;7.23;6.53;;;;;;;;;;5094658;28;20486;-63
2021/08/30 11:11:10;;;;;;;8.53;7.63;;;;;;;;;;5094662;28;20519;-62
2021/08/30 11:13:39;;;;;;;9.00;7.90;;;;;;;;;;5094268;28;20971;-64
2021/08/30 11:16:16;;;;;;;7.97;7.13;;;;;;;;;;5093866;28;20450;-63
2021/08/30 11:18:51;;;;;;;7.70;7.03;;;;;;;;;;5093886;28;20458;-65
2021/08/30 11:21:30;;;;;;;8.33;7.43;;;;;;;;;;5093325;28;20430;-63
2021/08/30 11:23:57;;;;;;;8.37;7.13;;;;;;;;;;5093444;28;20426;-64
2021/08/30 11:26:25;;;;;;;7.80;7.10;;;;;;;;;;5093575;28;20442;-64
2021/08/30 11:28:56;;;;;;;8.47;7.57;;;;;;;;;;5093523;28;20474;-64
2021/08/30 11:31:23;;;;;;;9.23;7.60;;;;;;;;;;5093715;28;20427;-64
2021/08/30 11:33:51;;;;;;;10.50;7.17;;;;;;;;;;5093336;28;20443;-64
2021/08/30 11:36:18;;;;;;;14.40;7.80;;;;;;;;;;5093482;28;20446;-64
2021/08/30 11:38:52;;;;;;;7.30;6.70;;;;;;;;;;5093428;28;20458;-63
2021/08/30 11:41:20;;;;;;;7.87;7.17;;;;;;;;;;5093350;28;20459;-63
2021/08/30 11:43:47;;;;;;;10.83;7.33;;;;;;;;;;5093698;28;20953;-64
2021/08/30 11:46:16;;;;;;;8.00;7.17;;;;;;;;;;5093084;28;20930;-65
2021/08/30 11:48:43;;;;;;;9.13;6.70;;;;;;;;;;5092960;28;20527;-63
2021/08/30 11:51:11;;;;;;;10.23;8.50;;;;;;;;;;5093380;28;20442;-62
2021/08/30 11:53:38;;;;;;;7.73;7.03;;;;;;;;;;5093095;28;20503;-64
2021/08/30 11:56:06;;;;;;;6.77;6.10;;;;;;;;;;5092971;28;21046;-63
2021/08/30 11:58:34;;;;;;;8.43;7.30;;;;;;;;;;5092821;28;20459;-64
2021/08/30 12:01:02;;;;;;;8.03;7.23;;;;;;;;;;5093524;28;20464;-62
2021/08/30 12:03:41;;;;;;;7.60;6.90;;;;;;;;;;5093919;28;20541;-65
2021/08/30 12:06:14;;;;;;;8.33;7.23;;;;;;;;;;5092834;28;20526;-64
2021/08/30 12:08:48;;;;;;;7.33;6.37;;;;;;;;;;5092546;28;21060;-64
2021/08/30 12:11:15;;;;;;;7.63;6.90;;;;;;;;;;5092526;28;20427;-64
2021/08/30 12:13:56;;;;;;;7.47;6.80;;;;;;;;;;5092666;28;20446;-64
2021/08/30 12:16:24;;;;;;;8.20;7.40;;;;;;;;;;5092890;28;20434;-64
2021/08/30 12:18:54;;;;;;;6.90;6.30;;;;;;;;;;5092954;28;20523;-63
2021/08/30 12:21:29;;;;;;;10.40;7.00;;;;;;;;;;5093457;28;20447;-63
2021/08/30 12:23:57;;;;;;;7.40;6.70;;;;;;;;;;5092686;28;20867;-63
2021/08/30 12:26:24;;;;;;;7.97;6.63;;;;;;;;;;5092587;28;20442;-63
2021/08/30 12:28:55;;;;;;;7.23;6.60;;;;;;;;;;5094094;28;20466;-63
2021/08/30 12:31:25;;;;;;;8.27;7.10;;;;;;;;;;5096970;28;20483;-64
2021/08/30 12:34:02;;;;;;;8.10;6.53;;;;;;;;;;5096647;28;20446;-64
2021/08/30 12:36:30;;;;;;;6.87;6.17;;;;;;;;;;5096863;28;20788;-63
2021/08/30 12:38:57;;;;;;;5.97;5.43;;;;;;;;;;5096244;28;20463;-63
2021/08/30 12:41:24;;;;;;;7.03;6.33;;;;;;;;;;5096518;28;20929;-64
2021/08/30 12:43:52;;;;;;;6.83;6.23;;;;;;;;;;5096682;28;20491;-64
2021/08/30 12:46:19;;;;;;;7.77;5.50;;;;;;;;;;5096638;28;20451;-64
2021/08/30 12:48:46;;;;;;;5.77;5.27;;;;;;;;;;5096042;28;20978;-63
2021/08/30 12:51:16;;;;;;;6.40;5.90;;;;;;;;;;5096708;28;20443;-65
2021/08/30 12:53:43;;;;;;;6.70;6.03;;;;;;;;;;5097364;28;20496;-65
2021/08/30 12:56:11;;;;;;;5.93;5.40;;;;;;;;;;5098783;28;20442;-65
2021/08/30 12:58:38;;;;;;;7.37;5.77;;;;;;;;;;5100894;28;20462;-64
2021/08/30 13:01:05;;;;;;;6.73;5.77;;;;;;;;;;5099925;28;20442;-64
2021/08/30 13:03:33;;;;;;;8.33;6.17;;;;;;;;;;5097407;28;20446;-64
2021/08/30 13:06:00;;;;;;;6.17;5.57;;;;;;;;;;5095894;28;20941;-63
2021/08/30 13:08:29;;;;;;;6.83;6.07;;;;;;;;;;5095729;28;20658;-64
2021/08/30 13:10:56;;;;;;;7.13;6.10;;;;;;;;;;5096459;28;20532;-63
2021/08/30 13:13:23;;;;;;;6.53;5.80;;;;;;;;;;5095728;28;20793;-64
2021/08/30 13:15:51;;;;;;;11.60;6.60;;;;;;;;;;5095602;28;20445;-64
2021/08/30 13:18:18;;;;;;;6.97;6.27;;;;;;;;;;5095584;28;20515;-64
2021/08/30 13:20:50;;;;;;;5.97;5.13;;;;;;;;;;5096377;28;20511;-65
2021/08/30 13:23:18;;;;;;;7.30;5.67;;;;;;;;;;5095871;28;20430;-63
2021/08/30 13:25:46;;;;;;;7.67;5.73;;;;;;;;;;5095445;28;20866;-64
2021/08/30 13:28:14;;;;;;;4.90;4.40;;;;;;;;;;5095327;22;20485;-58
2021/08/30 13:30:41;;;;;;;6.47;5.17;;;;;;;;;;5035174;28;20510;-58
2021/08/30 13:33:08;;;;;;;6.40;5.63;;;;;;;;;;5035449;28;20502;-56
2021/08/30 13:35:37;;;;;;;6.30;5.70;;;;;;;;;;5035354;28;20554;-58
2021/08/30 13:38:04;;;;;;;6.13;5.53;;;;;;;;;;5035075;28;20560;-57
2021/08/30 13:40:32;;;;;;;5.83;5.33;;;;;;;;;;5034664;28;20505;-57
2021/08/30 13:43:00;;;;;;;5.83;5.30;;;;;;;;;;5034832;28;20444;-57
2021/08/30 13:45:28;;;;;;;5.27;4.50;;;;;;;;;;5034966;28;20453;-56
2021/08/30 13:47:58;;;;;;;6.03;5.50;;;;;;;;;;5034918;28;20539;-57
2021/08/30 13:50:26;;;;;;;5.80;5.20;;;;;;;;;;5035052;28;20515;-57
2021/08/30 13:52:55;;;;;;;6.03;5.43;;;;;;;;;;5035203;28;20441;-56
2021/08/30 13:55:22;;;;;;;8.03;5.80;;;;;;;;;;5035146;28;20445;-57
2021/08/30 13:57:49;;;;;;;6.77;5.90;;;;;;;;;;5034983;28;20878;-58
2021/08/30 14:00:18;;;;;;;5.37;4.80;;;;;;;;;;5034738;28;20510;-57
2021/08/30 14:02:46;;;;;;;5.83;5.33;;;;;;;;;;5035088;28;20437;-57
2021/08/30 14:05:13;;;;;;;6.27;5.50;;;;;;;;;;5034795;28;20937;-57
2021/08/30 14:15:29;;;;;;;6.90;6.30;;;;;;;;;;6077327;22;20503;-59
2021/08/30 14:17:57;;;;;;;6.50;5.30;;;;;;;;;;4995093;28;21065;-57
2021/08/30 14:20:24;;;;;;;5.50;5.00;;;;;;;;;;4995025;28;20459;-58
2021/08/30 14:22:51;;;;;;;5.57;5.07;;;;;;;;;;4995627;28;20447;-57
2021/08/30 14:25:19;;;;;;;6.67;6.00;;;;;;;;;;4995191;28;20481;-59
2021/08/30 14:27:47;;;;;;;6.37;5.77;;;;;;;;;;4995327;28;20463;-57
2021/08/30 14:30:15;;;;;;;5.50;5.00;;;;;;;;;;4994693;28;20492;-57
2021/08/30 14:32:44;;;;;;;5.73;5.23;;;;;;;;;;4994848;28;20446;-57
2021/08/30 14:35:11;;;;;;;6.10;5.60;;;;;;;;;;4995291;28;20453;-58
2021/08/30 14:37:39;;;;;;;5.30;4.80;;;;;;;;;;4994570;28;20462;-57
2021/08/30 14:40:07;;;;;;;6.30;5.70;;;;;;;;;;4994507;28;20844;-57
2021/08/30 14:42:34;;;;;;;6.80;6.20;;;;;;;;;;4995087;28;20865;-57
2021/08/30 14:45:01;;;;;;;5.70;5.20;;;;;;;;;;4994865;28;20453;-58
2021/08/30 14:47:28;;;;;;;6.07;5.57;;;;;;;;;;4994796;28;20513;-58